Date,TemperatureHighF,TemperatureAvgF,TemperatureLowF,DewpointHighF,DewpointAvgF,DewpointLowF,HumidityHigh,HumidityAvg,HumidityLow,PressureMaxIn,PressureMinIn,WindSpeedMaxMPH,WindSpeedAvgMPH,GustSpeedMaxMPH,PrecipitationSumIn
2013-11-1,68,61,48,63,55,43,96,82,54,29.77,29.45,28,2,28,0.38
2013-11-2,63,49,38,49,43,36,97,83,53,29.82,29.63,15,0,15,0.01
2013-11-3,46,37,28,44,30,18,96,75,56,30.50,29.81,13,1,13,0.00
2013-11-4,43,31,20,26,22,18,91,70,43,30.72,30.50,10,0,10,0.00
2013-11-5,52,41,27,39,32,22,86,71,58,30.72,30.51,11,1,11,0.00
2013-11-6,56,50,39,48,44,36,95,80,67,30.51,30.04,13,1,13,0.00
2013-11-7,56,48,39,55,45,35,97,89,82,30.04,29.78,14,1,14,0.37
2013-11-8,44,38,32,37,32,26,92,78,55,30.19,29.90,22,1,22,0.00
2013-11-9,44,37,27,34,29,24,90,74,59,30.29,30.00,7,0,9,0.00
2013-11-10,45,43,37,40,36,31,91,77,61,30.04,29.83,18,1,18,0.07
2013-11-11,48,43,37,35,32,30,92,67,51,30.19,29.95,14,1,14,0.02
2013-11-12,46,32,26,36,24,19,86,73,61,30.30,29.94,13,1,13,0.00
2013-11-13,35,27,21,20,18,15,86,68,44,30.40,30.24,14,1,14,0.73
2013-11-14,50,38,27,26,22,17,73,54,35,30.24,30.13,9,1,9,0.00
2013-11-15,59,40,23,29,23,18,87,55,21,30.25,30.14,10,0,10,0.00
2013-11-16,60,42,31,42,33,27,93,72,41,30.35,30.24,5,0,5,0.00
2013-11-17,60,51,31,58,49,29,96,91,84,30.31,29.76,10,1,10,0.01
2013-11-18,62,56,44,59,45,30,96,69,45,29.77,29.54,18,2,18,0.41
2013-11-19,44,37,30,33,26,21,75,64,54,30.40,29.77,19,2,19,0.00
2013-11-20,38,28,19,22,20,17,89,70,49,30.68,30.40,9,0,9,0.00
2013-11-21,46,33,17,34,26,14,93,76,53,30.69,30.41,8,0,8,0.00
2013-11-22,48,45,38,46,43,34,98,94,84,30.41,29.91,7,0,7,0.17
2013-11-23,46,36,24,45,27,14,97,72,45,30.06,29.88,15,1,15,0.00
2013-11-24,24,20,16,15,9,4,75,61,44,30.36,29.97,21,2,21,0.00
2013-11-25,32,24,12,17,12,6,83,62,51,30.49,30.31,12,1,12,0.00
2013-11-26,35,32,26,32,26,15,94,79,53,30.35,30.13,12,1,12,0.20
2013-11-27,33,33,31,32,30,28,94,91,87,29.67,29.53,16,1,16,1.15
2013-11-28,31,25,18,28,18,14,91,74,58,30.49,29.67,19,2,19,1.64
2013-11-29,32,24,18,22,18,14,92,78,62,30.79,30.49,9,0,9,0.02
2013-11-30,32,23,12,26,14,9,100,70,46,30.82,30.42,6,1,11,0.00